sensor_id;sensor_type;location;lat;lon;timestamp;pressure;altitude;pressure_sealevel;temperature;humidity
10688;BME280;5392;42.688;23.298;2024-03-17T00:01:49;95122.75;;;5.97;75.88
10688;BME280;5392;42.688;23.298;2024-03-17T00:04:15;95119.56;;;5.87;77.14
10688;BME280;5392;42.688;23.298;2024-03-17T00:06:40;95119.44;;;5.88;77.22
10688;BME280;5392;42.688;23.298;2024-03-17T00:09:06;95118.47;;;5.81;76.64
10688;BME280;5392;42.688;23.298;2024-03-17T00:11:35;95117.19;;;5.77;77.35
10688;BME280;5392;42.688;23.298;2024-03-17T00:14:01;95116.84;;;5.80;76.88
10688;BME280;5392;42.688;23.298;2024-03-17T00:16:27;95115.59;;;5.76;76.88
10688;BME280;5392;42.688;23.298;2024-03-17T00:18:53;95125.50;;;5.79;77.47
10688;BME280;5392;42.688;23.298;2024-03-17T00:21:18;95122.59;;;5.82;76.31
10688;BME280;5392;42.688;23.298;2024-03-17T00:23:47;95116.72;;;5.82;76.78
10688;BME280;5392;42.688;23.298;2024-03-17T00:26:14;95113.53;;;5.72;76.86
10688;BME280;5392;42.688;23.298;2024-03-17T00:28:40;95114.72;;;5.53;77.45
10688;BME280;5392;42.688;23.298;2024-03-17T00:31:05;95108.44;;;5.64;77.58
10688;BME280;5392;42.688;23.298;2024-03-17T00:33:31;95111.13;;;5.70;76.60
10688;BME280;5392;42.688;23.298;2024-03-17T00:35:59;95110.03;;;5.73;77.17
10688;BME280;5392;42.688;23.298;2024-03-17T00:38:24;95106.69;;;5.64;76.90
10688;BME280;5392;42.688;23.298;2024-03-17T00:40:50;95113.72;;;5.54;77.79
10688;BME280;5392;42.688;23.298;2024-03-17T00:43:15;95104.31;;;5.55;77.19
10688;BME280;5392;42.688;23.298;2024-03-17T00:45:41;95116.44;;;5.61;76.87
10688;BME280;5392;42.688;23.298;2024-03-17T00:48:07;95120.09;;;5.58;77.60
10688;BME280;5392;42.688;23.298;2024-03-17T00:50:32;95111.00;;;5.56;77.97
10688;BME280;5392;42.688;23.298;2024-03-17T00:52:58;95109.41;;;5.55;77.45
10688;BME280;5392;42.688;23.298;2024-03-17T00:55:23;95107.81;;;5.54;77.79
10688;BME280;5392;42.688;23.298;2024-03-17T00:57:49;95114.06;;;5.43;78.79
10688;BME280;5392;42.688;23.298;2024-03-17T01:00:15;95109.13;;;5.42;78.05
10688;BME280;5392;42.688;23.298;2024-03-17T01:02:40;95111.50;;;5.43;78.76
10688;BME280;5392;42.688;23.298;2024-03-17T01:05:06;95117.75;;;5.49;77.47
10688;BME280;5392;42.688;23.298;2024-03-17T01:07:33;95112.63;;;5.49;77.59
10688;BME280;5392;42.688;23.298;2024-03-17T01:09:58;95115.50;;;5.46;78.08
10688;BME280;5392;42.688;23.298;2024-03-17T01:12:25;95111.06;;;5.40;77.97
10688;BME280;5392;42.688;23.298;2024-03-17T01:14:50;95114.41;;;5.32;78.50
10688;BME280;5392;42.688;23.298;2024-03-17T01:17:16;95115.84;;;5.35;78.68
10688;BME280;5392;42.688;23.298;2024-03-17T01:19:44;95108.97;;;5.35;78.20
10688;BME280;5392;42.688;23.298;2024-03-17T01:22:10;95118.88;;;5.30;78.13
10688;BME280;5392;42.688;23.298;2024-03-17T01:24:35;95122.56;;;5.28;78.47
10688;BME280;5392;42.688;23.298;2024-03-17T01:27:01;95126.09;;;5.18;78.78
10688;BME280;5392;42.688;23.298;2024-03-17T01:29:27;95116.03;;;5.17;79.91
10688;BME280;5392;42.688;23.298;2024-03-17T01:31:52;95113.63;;;5.07;79.68
10688;BME280;5392;42.688;23.298;2024-03-17T01:34:21;95115.84;;;5.02;79.92
10688;BME280;5392;42.688;23.298;2024-03-17T01:36:47;95116.34;;;5.06;79.41
10688;BME280;5392;42.688;23.298;2024-03-17T01:39:12;95111.88;;;4.92;81.14
10688;BME280;5392;42.688;23.298;2024-03-17T01:41:38;95113.81;;;4.82;81.07
10688;BME280;5392;42.688;23.298;2024-03-17T01:44:04;95115.38;;;4.83;80.74
10688;BME280;5392;42.688;23.298;2024-03-17T01:46:30;95113.94;;;4.96;80.02
10688;BME280;5392;42.688;23.298;2024-03-17T01:48:56;95118.09;;;4.89;80.84
10688;BME280;5392;42.688;23.298;2024-03-17T01:51:22;95114.28;;;4.77;80.87
10688;BME280;5392;42.688;23.298;2024-03-17T01:53:48;95120.94;;;4.62;82.00
10688;BME280;5392;42.688;23.298;2024-03-17T01:56:16;95109.66;;;4.73;81.30
10688;BME280;5392;42.688;23.298;2024-03-17T01:58:44;95107.25;;;4.79;80.84
10688;BME280;5392;42.688;23.298;2024-03-17T02:01:11;95113.00;;;4.81;81.33
10688;BME280;5392;42.688;23.298;2024-03-17T02:03:40;95111.56;;;4.79;81.08
10688;BME280;5392;42.688;23.298;2024-03-17T02:06:07;95107.56;;;4.76;81.38
10688;BME280;5392;42.688;23.298;2024-03-17T02:08:53;95109.47;;;4.82;80.86
10688;BME280;5392;42.688;23.298;2024-03-17T02:11:30;95110.09;;;4.84;80.45
10688;BME280;5392;42.688;23.298;2024-03-17T02:13:57;95105.97;;;4.83;80.42
10688;BME280;5392;42.688;23.298;2024-03-17T02:16:23;95115.38;;;4.83;80.35
10688;BME280;5392;42.688;23.298;2024-03-17T02:18:49;95111.06;;;4.83;80.49
10688;BME280;5392;42.688;23.298;2024-03-17T02:21:19;95107.41;;;4.86;79.98
10688;BME280;5392;42.688;23.298;2024-03-17T02:23:48;95110.91;;;4.85;79.78
10688;BME280;5392;42.688;23.298;2024-03-17T02:26:13;95120.19;;;4.86;80.37
10688;BME280;5392;42.688;23.298;2024-03-17T02:28:43;95117.63;;;4.86;79.74
10688;BME280;5392;42.688;23.298;2024-03-17T02:31:11;95109.97;;;4.86;80.35
10688;BME280;5392;42.688;23.298;2024-03-17T02:33:37;95113.94;;;4.80;80.48
10688;BME280;5392;42.688;23.298;2024-03-17T02:36:03;95112.66;;;4.84;79.98
10688;BME280;5392;42.688;23.298;2024-03-17T02:38:30;95108.22;;;4.86;80.33
10688;BME280;5392;42.688;23.298;2024-03-17T02:41:15;95111.53;;;4.87;79.97
10688;BME280;5392;42.688;23.298;2024-03-17T02:43:41;95101.50;;;4.85;80.42
10688;BME280;5392;42.688;23.298;2024-03-17T02:46:10;95113.47;;;4.85;79.96
10688;BME280;5392;42.688;23.298;2024-03-17T02:48:36;95098.78;;;4.79;80.78
10688;BME280;5392;42.688;23.298;2024-03-17T02:51:03;95101.34;;;4.79;80.08
10688;BME280;5392;42.688;23.298;2024-03-17T02:53:29;95106.91;;;4.82;80.13
10688;BME280;5392;42.688;23.298;2024-03-17T02:55:55;95099.13;;;4.84;79.91
10688;BME280;5392;42.688;23.298;2024-03-17T02:58:20;95096.56;;;4.84;80.37
10688;BME280;5392;42.688;23.298;2024-03-17T03:00:46;95101.50;;;4.85;80.79
10688;BME280;5392;42.688;23.298;2024-03-17T03:03:11;95100.22;;;4.81;80.85
10688;BME280;5392;42.688;23.298;2024-03-17T03:05:37;95094.16;;;4.82;80.29
10688;BME280;5392;42.688;23.298;2024-03-17T03:08:03;95093.66;;;4.87;80.17
10688;BME280;5392;42.688;23.298;2024-03-17T03:10:29;95098.31;;;4.83;80.07
10688;BME280;5392;42.688;23.298;2024-03-17T03:12:55;95093.50;;;4.80;79.91
10688;BME280;5392;42.688;23.298;2024-03-17T03:15:20;95096.06;;;4.80;80.11
10688;BME280;5392;42.688;23.298;2024-03-17T03:17:46;95096.22;;;4.79;80.45
10688;BME280;5392;42.688;23.298;2024-03-17T03:20:11;95097.19;;;4.78;80.43
10688;BME280;5392;42.688;23.298;2024-03-17T03:22:37;95095.09;;;4.73;80.07
10688;BME280;5392;42.688;23.298;2024-03-17T03:25:03;95095.25;;;4.72;80.50
10688;BME280;5392;42.688;23.298;2024-03-17T03:27:28;95096.38;;;4.69;80.83
10688;BME280;5392;42.688;23.298;2024-03-17T03:29:54;95097.66;;;4.65;81.25
10688;BME280;5392;42.688;23.298;2024-03-17T03:32:21;95099.28;;;4.66;80.73
10688;BME280;5392;42.688;23.298;2024-03-17T03:34:47;95105.47;;;4.64;80.74
10688;BME280;5392;42.688;23.298;2024-03-17T03:37:12;95104.50;;;4.57;80.23
10688;BME280;5392;42.688;23.298;2024-03-17T03:39:38;95105.63;;;4.54;79.84
10688;BME280;5392;42.688;23.298;2024-03-17T03:42:04;95111.38;;;4.48;79.93
10688;BME280;5392;42.688;23.298;2024-03-17T03:44:29;95105.91;;;4.43;80.11
10688;BME280;5392;42.688;23.298;2024-03-17T03:46:54;95106.69;;;4.35;80.51
10688;BME280;5392;42.688;23.298;2024-03-17T03:49:27;95111.97;;;4.34;80.86
10688;BME280;5392;42.688;23.298;2024-03-17T03:51:53;95112.78;;;4.34;80.99
10688;BME280;5392;42.688;23.298;2024-03-17T03:54:19;95113.72;;;4.33;81.18
10688;BME280;5392;42.688;23.298;2024-03-17T03:56:45;95116.59;;;4.38;81.15
10688;BME280;5392;42.688;23.298;2024-03-17T03:59:10;95125.88;;;4.39;80.88
10688;BME280;5392;42.688;23.298;2024-03-17T04:01:35;95121.06;;;4.36;81.34
10688;BME280;5392;42.688;23.298;2024-03-17T04:04:01;95129.53;;;4.37;81.53
10688;BME280;5392;42.688;23.298;2024-03-17T04:06:28;95129.19;;;4.32;81.49
10688;BME280;5392;42.688;23.298;2024-03-17T04:08:54;95133.66;;;4.38;80.94
10688;BME280;5392;42.688;23.298;2024-03-17T04:11:19;95125.34;;;4.28;82.02
10688;BME280;5392;42.688;23.298;2024-03-17T04:13:45;95136.53;;;4.35;81.68
10688;BME280;5392;42.688;23.298;2024-03-17T04:16:12;95133.13;;;4.26;82.20
10688;BME280;5392;42.688;23.298;2024-03-17T04:18:40;95140.19;;;4.32;82.34
10688;BME280;5392;42.688;23.298;2024-03-17T04:21:06;95141.00;;;4.41;81.75
10688;BME280;5392;42.688;23.298;2024-03-17T04:23:32;95135.75;;;4.42;81.40
10688;BME280;5392;42.688;23.298;2024-03-17T04:25:59;95144.53;;;4.48;81.53
10688;BME280;5392;42.688;23.298;2024-03-17T04:28:26;95144.22;;;4.51;81.45
10688;BME280;5392;42.688;23.298;2024-03-17T04:30:51;95152.50;;;4.53;81.30
10688;BME280;5392;42.688;23.298;2024-03-17T04:33:17;95152.03;;;4.58;81.54
10688;BME280;5392;42.688;23.298;2024-03-17T04:35:42;95153.03;;;4.65;81.21
10688;BME280;5392;42.688;23.298;2024-03-17T04:38:09;95158.47;;;4.70;80.57
10688;BME280;5392;42.688;23.298;2024-03-17T04:40:35;95158.16;;;4.73;80.83
10688;BME280;5392;42.688;23.298;2024-03-17T04:43:04;95165.19;;;4.79;79.86
10688;BME280;5392;42.688;23.298;2024-03-17T04:45:30;95169.16;;;4.73;80.57
10688;BME280;5392;42.688;23.298;2024-03-17T04:47:55;95167.25;;;4.75;80.42
10688;BME280;5392;42.688;23.298;2024-03-17T04:50:21;95167.72;;;4.87;80.75
10688;BME280;5392;42.688;23.298;2024-03-17T04:52:47;95172.53;;;4.98;79.61
10688;BME280;5392;42.688;23.298;2024-03-17T04:55:12;95171.28;;;5.02;79.53
10688;BME280;5392;42.688;23.298;2024-03-17T04:57:38;95172.41;;;5.24;79.54
10688;BME280;5392;42.688;23.298;2024-03-17T05:00:04;95177.66;;;5.46;77.72
10688;BME280;5392;42.688;23.298;2024-03-17T05:02:32;95176.19;;;5.68;76.67
10688;BME280;5392;42.688;23.298;2024-03-17T05:04:58;95180.19;;;5.86;76.86
10688;BME280;5392;42.688;23.298;2024-03-17T05:07:24;95181.88;;;6.10;76.18
10688;BME280;5392;42.688;23.298;2024-03-17T05:09:49;95183.88;;;6.31;74.76
10688;BME280;5392;42.688;23.298;2024-03-17T05:12:15;95191.50;;;6.47;73.03
10688;BME280;5392;42.688;23.298;2024-03-17T05:14:41;95191.59;;;6.61;72.34
10688;BME280;5392;42.688;23.298;2024-03-17T05:17:06;95197.44;;;6.78;71.30
10688;BME280;5392;42.688;23.298;2024-03-17T05:19:32;95200.19;;;6.99;70.68
10688;BME280;5392;42.688;23.298;2024-03-17T05:21:57;95200.47;;;7.27;69.25
10688;BME280;5392;42.688;23.298;2024-03-17T05:27:06;95206.84;;;8.20;66.82
10688;BME280;5392;42.688;23.298;2024-03-17T05:29:32;95206.41;;;8.60;65.69
10688;BME280;5392;42.688;23.298;2024-03-17T05:31:58;95211.00;;;8.65;64.58
10688;BME280;5392;42.688;23.298;2024-03-17T05:34:23;95201.69;;;8.78;63.59
10688;BME280;5392;42.688;23.298;2024-03-17T05:36:50;95201.03;;;8.91;64.20
10688;BME280;5392;42.688;23.298;2024-03-17T05:39:16;95203.25;;;8.94;63.34
10688;BME280;5392;42.688;23.298;2024-03-17T05:41:42;95206.16;;;8.55;65.48
10688;BME280;5392;42.688;23.298;2024-03-17T05:44:09;95196.81;;;8.84;65.37
10688;BME280;5392;42.688;23.298;2024-03-17T05:46:34;95198.41;;;9.27;63.70
10688;BME280;5392;42.688;23.298;2024-03-17T05:49:00;95194.50;;;9.52;63.92
10688;BME280;5392;42.688;23.298;2024-03-17T05:51:25;95197.00;;;9.94;61.90
10688;BME280;5392;42.688;23.298;2024-03-17T05:53:52;95192.19;;;10.47;60.96
10688;BME280;5392;42.688;23.298;2024-03-17T05:56:18;95197.78;;;11.11;57.74
10688;BME280;5392;42.688;23.298;2024-03-17T05:58:43;95195.84;;;11.65;56.35
10688;BME280;5392;42.688;23.298;2024-03-17T06:01:09;95199.44;;;11.97;55.16
10688;BME280;5392;42.688;23.298;2024-03-17T06:03:36;95198.06;;;12.20;53.38
10688;BME280;5392;42.688;23.298;2024-03-17T06:06:03;95203.38;;;12.38;52.30
10688;BME280;5392;42.688;23.298;2024-03-17T06:08:29;95207.31;;;12.61;51.27
10688;BME280;5392;42.688;23.298;2024-03-17T06:10:54;95205.72;;;13.04;51.13
10688;BME280;5392;42.688;23.298;2024-03-17T06:13:23;95213.00;;;13.58;49.96
10688;BME280;5392;42.688;23.298;2024-03-17T06:15:50;95202.09;;;14.23;48.08
10688;BME280;5392;42.688;23.298;2024-03-17T06:18:15;95210.06;;;14.83;45.68
10688;BME280;5392;42.688;23.298;2024-03-17T06:20:44;95208.59;;;15.53;43.91
10688;BME280;5392;42.688;23.298;2024-03-17T06:23:11;95214.06;;;15.74;42.97
10688;BME280;5392;42.688;23.298;2024-03-17T06:25:45;95213.78;;;16.29;41.56
10688;BME280;5392;42.688;23.298;2024-03-17T06:28:12;95222.47;;;16.34;41.30
10688;BME280;5392;42.688;23.298;2024-03-17T06:30:44;95216.06;;;16.71;40.33
10688;BME280;5392;42.688;23.298;2024-03-17T06:33:17;95219.47;;;16.60;40.37
10688;BME280;5392;42.688;23.298;2024-03-17T06:35:46;95218.25;;;15.75;41.17
10688;BME280;5392;42.688;23.298;2024-03-17T06:38:12;95214.94;;;15.09;43.22
10688;BME280;5392;42.688;23.298;2024-03-17T06:40:38;95234.38;;;14.70;44.44
10688;BME280;5392;42.688;23.298;2024-03-17T06:43:04;95224.63;;;15.02;43.80
10688;BME280;5392;42.688;23.298;2024-03-17T06:45:29;95226.25;;;15.62;42.36
10688;BME280;5392;42.688;23.298;2024-03-17T06:47:54;95229.75;;;16.55;39.97
10688;BME280;5392;42.688;23.298;2024-03-17T06:50:21;95226.22;;;16.85;39.55
10688;BME280;5392;42.688;23.298;2024-03-17T06:52:46;95226.34;;;16.20;40.36
10688;BME280;5392;42.688;23.298;2024-03-17T06:55:12;95225.03;;;15.17;42.26
10688;BME280;5392;42.688;23.298;2024-03-17T06:57:37;95230.56;;;12.61;48.44
10688;BME280;5392;42.688;23.298;2024-03-17T07:00:03;95236.84;;;12.84;48.17
10688;BME280;5392;42.688;23.298;2024-03-17T07:02:32;95233.38;;;13.03;48.43
10688;BME280;5392;42.688;23.298;2024-03-17T07:04:58;95235.53;;;12.62;49.02
10688;BME280;5392;42.688;23.298;2024-03-17T07:07:26;95232.56;;;13.16;47.40
10688;BME280;5392;42.688;23.298;2024-03-17T07:09:51;95233.34;;;13.54;46.93
10688;BME280;5392;42.688;23.298;2024-03-17T07:12:17;95232.59;;;14.03;46.46
10688;BME280;5392;42.688;23.298;2024-03-17T07:14:42;95229.09;;;14.58;44.18
10688;BME280;5392;42.688;23.298;2024-03-17T07:17:07;95232.09;;;16.34;41.10
10688;BME280;5392;42.688;23.298;2024-03-17T07:19:33;95229.50;;;16.68;39.31
10688;BME280;5392;42.688;23.298;2024-03-17T07:22:01;95227.72;;;16.69;39.02
10688;BME280;5392;42.688;23.298;2024-03-17T07:24:26;95230.91;;;15.72;41.54
10688;BME280;5392;42.688;23.298;2024-03-17T07:26:53;95233.03;;;15.15;42.53
10688;BME280;5392;42.688;23.298;2024-03-17T07:29:18;95227.28;;;14.41;44.06
10688;BME280;5392;42.688;23.298;2024-03-17T07:31:44;95230.56;;;13.80;45.10
10688;BME280;5392;42.688;23.298;2024-03-17T07:34:09;95231.47;;;13.37;46.67
10688;BME280;5392;42.688;23.298;2024-03-17T07:36:35;95241.38;;;12.95;48.26
10688;BME280;5392;42.688;23.298;2024-03-17T07:39:01;95231.59;;;12.47;49.33
10688;BME280;5392;42.688;23.298;2024-03-17T07:41:27;95234.59;;;12.24;50.21
10688;BME280;5392;42.688;23.298;2024-03-17T07:43:52;95242.97;;;12.00;50.94
10688;BME280;5392;42.688;23.298;2024-03-17T07:46:18;95237.75;;;11.54;52.43
10688;BME280;5392;42.688;23.298;2024-03-17T07:48:44;95244.00;;;11.12;53.04
10688;BME280;5392;42.688;23.298;2024-03-17T07:51:12;95243.94;;;10.52;55.54
10688;BME280;5392;42.688;23.298;2024-03-17T07:53:39;95245.34;;;10.54;55.74
10688;BME280;5392;42.688;23.298;2024-03-17T07:56:08;95240.53;;;10.45;55.63
10688;BME280;5392;42.688;23.298;2024-03-17T07:58:40;95239.00;;;10.50;55.82
10688;BME280;5392;42.688;23.298;2024-03-17T08:01:08;95237.81;;;10.53;55.41
10688;BME280;5392;42.688;23.298;2024-03-17T08:03:37;95236.69;;;10.62;56.27
10688;BME280;5392;42.688;23.298;2024-03-17T08:06:21;95239.91;;;10.77;54.73
10688;BME280;5392;42.688;23.298;2024-03-17T08:08:47;95237.09;;;10.72;54.50
10688;BME280;5392;42.688;23.298;2024-03-17T08:11:13;95235.59;;;10.84;54.05
10688;BME280;5392;42.688;23.298;2024-03-17T08:13:39;95239.00;;;10.97;53.39
10688;BME280;5392;42.688;23.298;2024-03-17T08:16:06;95238.25;;;11.10;53.29
10688;BME280;5392;42.688;23.298;2024-03-17T08:18:32;95235.13;;;11.28;53.50
10688;BME280;5392;42.688;23.298;2024-03-17T08:21:00;95227.03;;;11.57;52.47
10688;BME280;5392;42.688;23.298;2024-03-17T08:23:26;95233.81;;;11.64;51.90
10688;BME280;5392;42.688;23.298;2024-03-17T08:28:18;95235.00;;;12.34;50.22
10688;BME280;5392;42.688;23.298;2024-03-17T08:30:43;95225.59;;;13.17;47.73
10688;BME280;5392;42.688;23.298;2024-03-17T08:33:15;95222.41;;;13.83;45.94
10688;BME280;5392;42.688;23.298;2024-03-17T08:35:40;95219.78;;;15.05;43.80
10688;BME280;5392;42.688;23.298;2024-03-17T08:38:06;95227.47;;;16.24;40.47
10688;BME280;5392;42.688;23.298;2024-03-17T08:40:31;95219.25;;;18.03;35.83
10688;BME280;5392;42.688;23.298;2024-03-17T08:42:57;95212.03;;;17.77;37.13
10688;BME280;5392;42.688;23.298;2024-03-17T08:45:22;95210.03;;;19.32;34.08
10688;BME280;5392;42.688;23.298;2024-03-17T08:47:51;95208.81;;;19.98;31.79
10688;BME280;5392;42.688;23.298;2024-03-17T08:50:17;95207.56;;;19.74;31.64
10688;BME280;5392;42.688;23.298;2024-03-17T08:52:43;95203.22;;;19.52;32.00
10688;BME280;5392;42.688;23.298;2024-03-17T08:55:09;95201.16;;;19.11;33.61
10688;BME280;5392;42.688;23.298;2024-03-17T08:57:39;95192.84;;;17.83;35.67
10688;BME280;5392;42.688;23.298;2024-03-17T09:00:05;95188.63;;;17.20;37.13
10688;BME280;5392;42.688;23.298;2024-03-17T09:02:30;95185.25;;;18.14;35.58
10688;BME280;5392;42.688;23.298;2024-03-17T09:04:56;95188.19;;;18.01;36.60
10688;BME280;5392;42.688;23.298;2024-03-17T09:07:21;95190.41;;;17.48;37.89
10688;BME280;5392;42.688;23.298;2024-03-17T09:09:47;95180.16;;;17.13;38.29
10688;BME280;5392;42.688;23.298;2024-03-17T09:12:13;95182.00;;;17.01;38.60
10688;BME280;5392;42.688;23.298;2024-03-17T09:14:39;95180.69;;;16.87;38.79
10688;BME280;5392;42.688;23.298;2024-03-17T09:17:06;95180.47;;;16.77;38.46
10688;BME280;5392;42.688;23.298;2024-03-17T09:19:32;95184.72;;;16.95;39.13
10688;BME280;5392;42.688;23.298;2024-03-17T09:21:58;95178.53;;;16.84;39.26
10688;BME280;5392;42.688;23.298;2024-03-17T09:24:24;95174.88;;;16.57;40.21
10688;BME280;5392;42.688;23.298;2024-03-17T09:26:49;95169.56;;;16.52;39.88
10688;BME280;5392;42.688;23.298;2024-03-17T09:29:15;95163.66;;;16.45;39.96
10688;BME280;5392;42.688;23.298;2024-03-17T09:31:41;95166.72;;;16.42;39.99
10688;BME280;5392;42.688;23.298;2024-03-17T09:34:07;95163.72;;;16.85;38.97
10688;BME280;5392;42.688;23.298;2024-03-17T09:36:33;95154.88;;;16.11;40.30
10688;BME280;5392;42.688;23.298;2024-03-17T09:38:59;95151.13;;;16.30;40.02
10688;BME280;5392;42.688;23.298;2024-03-17T09:41:26;95149.56;;;17.37;37.69
10688;BME280;5392;42.688;23.298;2024-03-17T09:43:56;95145.41;;;17.86;36.48
10688;BME280;5392;42.688;23.298;2024-03-17T09:46:23;95145.84;;;18.33;36.04
10688;BME280;5392;42.688;23.298;2024-03-17T09:48:49;95147.09;;;18.47;33.91
10688;BME280;5392;42.688;23.298;2024-03-17T09:51:21;95145.28;;;18.47;34.71
10688;BME280;5392;42.688;23.298;2024-03-17T09:53:47;95151.78;;;18.45;34.47
10688;BME280;5392;42.688;23.298;2024-03-17T09:56:15;95148.66;;;17.93;33.27
10688;BME280;5392;42.688;23.298;2024-03-17T09:58:47;95142.28;;;18.00;33.19
10688;BME280;5392;42.688;23.298;2024-03-17T10:01:13;95149.09;;;17.40;32.92
10688;BME280;5392;42.688;23.298;2024-03-17T10:06:10;95148.00;;;17.08;34.60
10688;BME280;5392;42.688;23.298;2024-03-17T10:11:12;95147.69;;;17.04;34.46
10688;BME280;5392;42.688;23.298;2024-03-17T10:13:39;95148.94;;;16.62;35.32
10688;BME280;5392;42.688;23.298;2024-03-17T10:16:05;95153.34;;;16.61;36.13
10688;BME280;5392;42.688;23.298;2024-03-17T10:18:31;95154.50;;;16.42;35.20
10688;BME280;5392;42.688;23.298;2024-03-17T10:20:57;95145.47;;;15.75;34.14
10688;BME280;5392;42.688;23.298;2024-03-17T10:23:24;95155.50;;;15.49;34.29
10688;BME280;5392;42.688;23.298;2024-03-17T10:25:50;95152.22;;;15.65;36.05
10688;BME280;5392;42.688;23.298;2024-03-17T10:28:16;95151.13;;;15.72;36.13
10688;BME280;5392;42.688;23.298;2024-03-17T10:30:42;95151.16;;;15.95;34.28
10688;BME280;5392;42.688;23.298;2024-03-17T10:33:25;95152.38;;;15.93;34.64
10688;BME280;5392;42.688;23.298;2024-03-17T10:35:58;95149.31;;;16.19;29.57
10688;BME280;5392;42.688;23.298;2024-03-17T10:38:24;95148.50;;;16.30;32.64
10688;BME280;5392;42.688;23.298;2024-03-17T10:40:49;95151.34;;;16.29;32.96
10688;BME280;5392;42.688;23.298;2024-03-17T10:43:15;95148.75;;;15.94;34.43
10688;BME280;5392;42.688;23.298;2024-03-17T10:45:42;95149.31;;;16.08;34.69
10688;BME280;5392;42.688;23.298;2024-03-17T10:48:08;95142.06;;;16.44;35.13
10688;BME280;5392;42.688;23.298;2024-03-17T10:50:38;95144.09;;;16.54;35.53
10688;BME280;5392;42.688;23.298;2024-03-17T10:53:06;95144.69;;;16.33;31.48
10688;BME280;5392;42.688;23.298;2024-03-17T10:55:45;95147.34;;;16.72;30.38
10688;BME280;5392;42.688;23.298;2024-03-17T10:58:30;95133.22;;;16.34;32.22
10688;BME280;5392;42.688;23.298;2024-03-17T11:00:58;95142.00;;;15.93;34.22
10688;BME280;5392;42.688;23.298;2024-03-17T11:03:24;95133.94;;;16.06;34.34
10688;BME280;5392;42.688;23.298;2024-03-17T11:05:51;95128.50;;;16.42;33.76
10688;BME280;5392;42.688;23.298;2024-03-17T11:08:18;95131.75;;;16.61;34.97
10688;BME280;5392;42.688;23.298;2024-03-17T11:10:51;95127.88;;;16.63;34.56
10688;BME280;5392;42.688;23.298;2024-03-17T11:13:37;95124.97;;;16.88;34.39
10688;BME280;5392;42.688;23.298;2024-03-17T11:16:04;95124.19;;;16.88;35.58
10688;BME280;5392;42.688;23.298;2024-03-17T11:18:50;95124.34;;;16.07;37.11
10688;BME280;5392;42.688;23.298;2024-03-17T11:21:19;95122.25;;;16.55;36.29
10688;BME280;5392;42.688;23.298;2024-03-17T11:23:56;95119.31;;;16.91;34.79
10688;BME280;5392;42.688;23.298;2024-03-17T11:26:27;95108.81;;;17.31;33.29
10688;BME280;5392;42.688;23.298;2024-03-17T11:28:53;95104.81;;;16.95;32.11
10688;BME280;5392;42.688;23.298;2024-03-17T11:34:29;95114.69;;;16.30;33.00
10688;BME280;5392;42.688;23.298;2024-03-17T11:36:56;95108.63;;;16.25;32.92
10688;BME280;5392;42.688;23.298;2024-03-17T11:39:54;95099.69;;;16.72;32.20
10688;BME280;5392;42.688;23.298;2024-03-17T11:42:27;95100.09;;;16.81;31.30
10688;BME280;5392;42.688;23.298;2024-03-17T11:47:23;95095.16;;;16.67;31.96
10688;BME280;5392;42.688;23.298;2024-03-17T11:49:58;95088.38;;;16.95;31.18
10688;BME280;5392;42.688;23.298;2024-03-17T11:52:26;95082.09;;;16.51;32.47
10688;BME280;5392;42.688;23.298;2024-03-17T11:54:52;95093.00;;;16.25;32.90
10688;BME280;5392;42.688;23.298;2024-03-17T11:57:22;95082.06;;;16.11;33.00
10688;BME280;5392;42.688;23.298;2024-03-17T11:59:48;95085.03;;;15.80;33.96
10688;BME280;5392;42.688;23.298;2024-03-17T12:02:21;95093.50;;;15.64;34.27
10688;BME280;5392;42.688;23.298;2024-03-17T12:04:48;95093.91;;;15.49;34.39
10688;BME280;5392;42.688;23.298;2024-03-17T12:07:18;95092.16;;;15.31;34.88
10688;BME280;5392;42.688;23.298;2024-03-17T12:09:45;95084.22;;;15.56;33.78
10688;BME280;5392;42.688;23.298;2024-03-17T12:12:18;95084.00;;;15.69;34.73
10688;BME280;5392;42.688;23.298;2024-03-17T12:14:45;95091.13;;;15.85;34.25
10688;BME280;5392;42.688;23.298;2024-03-17T12:17:12;95094.28;;;15.53;34.62
10688;BME280;5392;42.688;23.298;2024-03-17T12:19:39;95097.25;;;15.26;36.28
10688;BME280;5392;42.688;23.298;2024-03-17T12:22:06;95095.22;;;15.17;37.31
10688;BME280;5392;42.688;23.298;2024-03-17T12:24:36;95090.50;;;14.96;37.85
10688;BME280;5392;42.688;23.298;2024-03-17T12:27:05;95092.34;;;14.95;38.54
10688;BME280;5392;42.688;23.298;2024-03-17T12:29:38;95091.38;;;15.31;39.06
10688;BME280;5392;42.688;23.298;2024-03-17T12:32:18;95085.06;;;15.39;37.29
10688;BME280;5392;42.688;23.298;2024-03-17T12:34:45;95093.47;;;14.99;38.48
10688;BME280;5392;42.688;23.298;2024-03-17T12:37:18;95090.91;;;14.81;39.94
10688;BME280;5392;42.688;23.298;2024-03-17T12:39:45;95092.41;;;14.89;38.82
10688;BME280;5392;42.688;23.298;2024-03-17T12:42:11;95087.94;;;14.66;40.05
10688;BME280;5392;42.688;23.298;2024-03-17T12:44:54;95079.91;;;14.97;39.34
10688;BME280;5392;42.688;23.298;2024-03-17T12:47:22;95077.78;;;15.06;40.55
10688;BME280;5392;42.688;23.298;2024-03-17T12:49:52;95086.81;;;15.03;40.90
10688;BME280;5392;42.688;23.298;2024-03-17T12:52:26;95086.25;;;15.01;40.75
10688;BME280;5392;42.688;23.298;2024-03-17T12:55:03;95084.00;;;15.58;40.43
10688;BME280;5392;42.688;23.298;2024-03-17T12:57:50;95079.19;;;15.31;40.83
10688;BME280;5392;42.688;23.298;2024-03-17T13:00:35;95076.66;;;15.02;41.11
10688;BME280;5392;42.688;23.298;2024-03-17T13:03:04;95072.81;;;15.04;41.98
10688;BME280;5392;42.688;23.298;2024-03-17T13:05:34;95071.81;;;14.76;42.94
10688;BME280;5392;42.688;23.298;2024-03-17T13:08:00;95067.19;;;14.78;42.89
10688;BME280;5392;42.688;23.298;2024-03-17T13:10:27;95071.16;;;14.50;42.88
10688;BME280;5392;42.688;23.298;2024-03-17T13:13:07;95071.75;;;14.64;44.31
10688;BME280;5392;42.688;23.298;2024-03-17T13:15:34;95075.59;;;14.91;42.62
10688;BME280;5392;42.688;23.298;2024-03-17T13:18:04;95073.78;;;14.62;44.31
10688;BME280;5392;42.688;23.298;2024-03-17T13:20:34;95063.91;;;14.71;44.59
10688;BME280;5392;42.688;23.298;2024-03-17T13:23:00;95069.72;;;14.54;44.65